Erowati — 3FBC9 — position and weather

sailwx.info

Track history (hours):
 
Tides and Currents Weather Stations Pressure Air Temp Water Temp Dewpoint Dewpoint Depression Visibility Wind Speed Wind Dir Waves Ship Positions

Erowati

Last reported at 2017-Aug-23 12:16 UTC. Time now 2017-Sep-24 05:12 UTC.
Position N 32°31' W 128°19'.
Warning: this ship's position is 31 days out of date.

Length 190 m; draft 12 m.

Type: Cargo ship. MMSI: 353320000.

Date/timePositionNaut miles runAvg speedWind from/ knotsBaromVisibWave heightAir tempDewpointWater temp
2017-Aug-23 12:16N 32°31' W 128°19'  
2017-Aug-20 08:39N 24°35' W 114°56'211.1
2017-Aug-20 08:30N 24°35' W 114°55'611.1
2017-Aug-20 08:00N 24°31' W 114°50'911.3
2017-Aug-20 07:10N 24°25' W 114°42'411.4
2017-Aug-20 06:49N 24°23' W 114°39'811.3
2017-Aug-20 06:06N 24°18' W 114°32'411.3
2017-Aug-20 05:46N 24°15' W 114°29'311.2
2017-Aug-20 05:29N 24°13' W 114°26'  
Track history (hours):
 
Tides and Currents Weather Stations Pressure Air Temp Water Temp Dewpoint Dewpoint Depression Visibility Wind Speed Wind Dir Waves Ship Positions

Erowati

Last reported at 2017-Aug-23 12:16 UTC. Time now 2017-Sep-24 05:12 UTC.
Position N 32°31' W 128°19'.
Warning: this ship's position is 31 days out of date.

Length 190 m; draft 12 m.

Type: Cargo ship. MMSI: 353320000.

Date/timePositionNaut miles runAvg speedWind from/ knotsBaromVisibWave heightAir tempDewpointWater temp
2017-Aug-23 12:16N 32°31' W 128°19'  
2017-Aug-20 08:39N 24°35' W 114°56'211.1
2017-Aug-20 08:30N 24°35' W 114°55'611.1
2017-Aug-20 08:00N 24°31' W 114°50'911.3
2017-Aug-20 07:10N 24°25' W 114°42'411.4
2017-Aug-20 06:49N 24°23' W 114°39'811.3
2017-Aug-20 06:06N 24°18' W 114°32'411.3
2017-Aug-20 05:46N 24°15' W 114°29'311.2
2017-Aug-20 05:29N 24°13' W 114°26'  

Dump ship's entire track history